createdAt,value
2022-08-28T00:00:37.070Z,3.33
2022-08-28T00:03:05.931Z,2.95
2022-08-28T00:05:34.658Z,2.90
2022-08-28T00:08:04.676Z,2.75
2022-08-28T00:10:33.294Z,3.97
2022-08-28T00:13:01.330Z,3.25
2022-08-28T00:15:31.483Z,3.08
2022-08-28T00:18:00.157Z,3.38
2022-08-28T00:20:29.705Z,3.03
2022-08-28T00:22:58.049Z,3.05
2022-08-28T00:25:29.762Z,3.08
2022-08-28T00:27:58.730Z,3.22
2022-08-28T00:30:29.451Z,3.17
2022-08-28T00:32:59.573Z,2.92
2022-08-28T00:35:28.520Z,3.17
2022-08-28T00:37:56.721Z,3.60
2022-08-28T00:40:32.959Z,3.45
2022-08-28T00:43:01.644Z,3.72
2022-08-28T00:45:30.237Z,3.38
2022-08-28T00:47:58.442Z,3.47
2022-08-28T00:50:51.123Z,3.38
2022-08-28T00:53:18.791Z,3.50
2022-08-28T00:55:49.780Z,3.55
2022-08-28T00:58:18.529Z,3.40
2022-08-28T01:00:46.455Z,3.70
2022-08-28T01:03:14.388Z,3.25
2022-08-28T01:05:46.743Z,3.95
2022-08-28T01:08:15.013Z,3.80
2022-08-28T01:10:44.165Z,3.13
2022-08-28T01:13:13.697Z,3.35
2022-08-28T01:15:42.432Z,2.97
2022-08-28T01:18:13.645Z,3.22
2022-08-28T01:20:45.059Z,3.60
2022-08-28T01:23:18.834Z,3.70
2022-08-28T01:25:48.491Z,4.03
2022-08-28T01:28:16.690Z,4.07
2022-08-28T01:30:48.231Z,4.10
2022-08-28T01:33:16.610Z,3.80
2022-08-28T01:35:47.497Z,3.78
2022-08-28T01:38:19.608Z,3.92
2022-08-28T01:43:20.352Z,4.20
2022-08-28T01:45:52.761Z,3.70
2022-08-28T01:48:21.591Z,3.60
2022-08-28T01:50:50.533Z,4.65
2022-08-28T01:53:25.014Z,4.30
2022-08-28T01:55:55.559Z,3.83
2022-08-28T01:58:24.101Z,4.30
2022-08-28T02:00:54.189Z,3.92
2022-08-28T02:03:23.506Z,4.47
2022-08-28T02:05:51.842Z,4.32
2022-08-28T02:08:19.767Z,3.90
2022-08-28T02:10:49.075Z,4.15
2022-08-28T02:13:18.378Z,5.53
2022-08-28T02:15:48.832Z,4.50
2022-08-28T02:18:17.237Z,4.43
2022-08-28T02:20:45.210Z,3.75
2022-08-28T02:23:13.811Z,3.70
2022-08-28T02:25:41.844Z,4.25
2022-08-28T02:28:10.159Z,4.68
2022-08-28T02:30:40.120Z,4.28
2022-08-28T02:33:08.266Z,4.40
2022-08-28T02:35:36.230Z,4.78
2022-08-28T02:38:04.829Z,5.18
2022-08-28T02:40:33.314Z,4.57
2022-08-28T02:43:01.334Z,4.93
2022-08-28T02:45:29.275Z,5.03
2022-08-28T02:47:58.604Z,4.72
2022-08-28T02:50:26.663Z,4.90
2022-08-28T02:52:54.695Z,4.68
2022-08-28T02:55:24.672Z,4.78
2022-08-28T02:57:54.533Z,5.20
2022-08-28T03:00:25.548Z,4.22
2022-08-28T03:02:54.131Z,4.75
2022-08-28T03:05:25.147Z,5.28
2022-08-28T03:07:54.315Z,5.45
2022-08-28T03:10:22.784Z,5.63
2022-08-28T03:12:51.727Z,5.10
2022-08-28T03:15:19.970Z,5.07
2022-08-28T03:17:48.111Z,5.07
2022-08-28T03:20:16.666Z,5.63
2022-08-28T03:23:03.635Z,5.53
2022-08-28T03:25:31.576Z,5.65
2022-08-28T03:27:59.513Z,5.63
2022-08-28T03:30:27.488Z,6.38
2022-08-28T03:32:55.494Z,5.63
2022-08-28T03:35:23.449Z,5.78
2022-08-28T03:37:52.817Z,5.68
2022-08-28T03:40:21.917Z,6.65
2022-08-28T03:42:53.386Z,6.72
2022-08-28T03:45:21.939Z,6.18
2022-08-28T03:47:50.855Z,5.95
2022-08-28T03:50:19.888Z,5.50
2022-08-28T03:52:48.526Z,5.22
2022-08-28T03:55:19.632Z,5.53
2022-08-28T03:57:47.930Z,5.72
2022-08-28T04:00:16.956Z,5.70
2022-08-28T04:02:46.192Z,6.55
2022-08-28T04:05:17.618Z,6.63
2022-08-28T04:07:45.788Z,6.07
2022-08-28T04:10:14.451Z,6.65
2022-08-28T04:12:44.411Z,6.57
2022-08-28T04:15:13.130Z,6.47
2022-08-28T04:17:41.606Z,6.53
2022-08-28T04:20:10.964Z,5.25
2022-08-28T04:22:39.035Z,5.43
2022-08-28T04:25:07.974Z,4.70
2022-08-28T04:27:36.171Z,6.05
2022-08-28T04:30:06.988Z,4.65
2022-08-28T04:32:38.525Z,6.20
2022-08-28T04:35:07.687Z,5.80
2022-08-28T04:37:36.875Z,6.22
2022-08-28T04:40:05.713Z,5.45
2022-08-28T04:42:33.706Z,6.38
2022-08-28T04:45:02.037Z,7.07
2022-08-28T04:47:31.415Z,6.30
2022-08-28T04:49:59.371Z,6.30
2022-08-28T04:52:27.496Z,5.38
2022-08-28T04:54:55.756Z,5.93
2022-08-28T04:57:23.691Z,6.07
2022-08-28T04:59:51.763Z,5.90
2022-08-28T05:02:19.971Z,5.97
2022-08-28T05:04:50.426Z,8.05
2022-08-28T05:07:18.403Z,5.53
2022-08-28T05:09:46.356Z,6.22
2022-08-28T05:12:17.255Z,5.47
2022-08-28T05:14:45.803Z,6.00
2022-08-28T05:17:14.895Z,4.60
2022-08-28T05:19:43.744Z,5.15
2022-08-28T05:22:13.023Z,4.90
2022-08-28T05:24:41.250Z,4.18
2022-08-28T05:27:09.719Z,4.10
2022-08-28T05:29:37.704Z,3.58
2022-08-28T05:32:06.341Z,4.05
2022-08-28T05:34:34.355Z,4.28
2022-08-28T05:37:02.295Z,3.75
2022-08-28T05:39:31.978Z,3.65
2022-08-28T05:42:00.024Z,3.88
2022-08-28T05:44:28.030Z,3.90
2022-08-28T05:46:56.285Z,3.88
2022-08-28T05:49:24.520Z,3.95
2022-08-28T05:51:52.568Z,3.75
2022-08-28T05:54:20.808Z,5.15
2022-08-28T05:56:50.419Z,4.10
2022-08-28T05:59:18.747Z,4.28
2022-08-28T06:01:48.138Z,4.13
2022-08-28T06:04:18.612Z,3.88
2022-08-28T06:06:48.951Z,4.38
2022-08-28T06:09:20.246Z,3.67
2022-08-28T06:11:48.879Z,3.90
2022-08-28T06:14:20.763Z,3.63
2022-08-28T06:16:50.661Z,4.22
2022-08-28T06:19:18.814Z,4.47
2022-08-28T06:21:48.179Z,4.25
2022-08-28T06:24:16.276Z,4.00
2022-08-28T06:26:44.475Z,4.28
2022-08-28T06:29:15.623Z,4.55
2022-08-28T06:31:45.205Z,4.00
2022-08-28T06:34:13.791Z,4.65
2022-08-28T06:36:43.298Z,4.68
2022-08-28T06:39:12.848Z,4.20
2022-08-28T06:41:43.251Z,4.63
2022-08-28T06:44:12.154Z,4.05
2022-08-28T06:46:40.199Z,4.07
2022-08-28T06:49:10.123Z,4.13
2022-08-28T06:51:38.389Z,3.95
2022-08-28T06:54:06.590Z,3.78
2022-08-28T06:56:35.019Z,4.15
2022-08-28T06:59:02.999Z,3.85
2022-08-28T07:01:33.302Z,3.85
2022-08-28T07:04:03.993Z,3.67
2022-08-28T07:06:35.671Z,3.90
2022-08-28T07:09:05.198Z,3.67
2022-08-28T07:11:35.156Z,3.03
2022-08-28T07:14:04.414Z,3.15
2022-08-28T07:16:34.495Z,3.38
2022-08-28T07:19:04.789Z,3.22
2022-08-28T07:21:38.202Z,3.30
2022-08-28T07:24:07.290Z,3.22
2022-08-28T07:26:35.661Z,3.28
2022-08-28T07:29:10.128Z,3.35
2022-08-28T07:31:41.157Z,2.80
2022-08-28T07:34:10.226Z,3.08
2022-08-28T07:36:40.078Z,2.47
2022-08-28T07:39:09.092Z,3.53
2022-08-28T07:41:39.332Z,3.30
2022-08-28T07:44:25.307Z,2.50
2022-08-28T07:46:54.491Z,2.95
2022-08-28T07:49:23.134Z,3.60
2022-08-28T07:51:54.002Z,2.58
2022-08-28T07:54:23.347Z,2.10
2022-08-28T07:56:51.902Z,2.67
2022-08-28T07:59:20.247Z,2.33
2022-08-28T08:01:51.411Z,2.47
2022-08-28T08:04:20.722Z,2.42
2022-08-28T08:06:48.908Z,2.28
2022-08-28T08:09:20.146Z,2.65
2022-08-28T08:11:50.362Z,2.40
2022-08-28T08:14:19.008Z,2.58
2022-08-28T08:16:48.066Z,2.50
2022-08-28T08:19:17.365Z,2.65
2022-08-28T08:21:47.813Z,2.30
2022-08-28T08:24:21.047Z,2.22
2022-08-28T08:26:59.537Z,2.38
2022-08-28T08:29:29.090Z,2.67
2022-08-28T08:31:58.046Z,2.83
2022-08-28T08:34:26.774Z,2.08
2022-08-28T08:36:55.249Z,2.28
2022-08-28T08:39:23.200Z,1.95
2022-08-28T08:41:56.078Z,2.30
2022-08-28T08:44:28.501Z,1.85
2022-08-28T08:47:14.529Z,2.33
2022-08-28T08:49:45.313Z,2.20
2022-08-28T08:52:37.465Z,2.33
2022-08-28T08:55:18.339Z,2.92
2022-08-28T08:57:49.831Z,3.13
2022-08-28T09:00:18.971Z,2.10
2022-08-28T09:02:51.910Z,2.30
2022-08-28T09:05:22.164Z,2.50
2022-08-28T09:07:56.682Z,2.40
2022-08-28T09:10:25.720Z,2.72
2022-08-28T09:13:04.943Z,2.22
2022-08-28T09:15:35.505Z,2.90
2022-08-28T09:18:12.525Z,2.30
2022-08-28T09:20:41.992Z,2.92
2022-08-28T09:23:12.677Z,2.38
2022-08-28T09:25:56.403Z,2.33
2022-08-28T09:28:32.720Z,3.58
2022-08-28T09:31:05.072Z,3.40
2022-08-28T09:33:41.590Z,3.17
2022-08-28T09:36:25.211Z,2.58
2022-08-28T09:39:14.587Z,2.85
2022-08-28T09:42:06.731Z,2.90
2022-08-28T09:44:50.871Z,2.33
2022-08-28T09:47:46.447Z,2.70
2022-08-28T09:50:28.280Z,2.00
2022-08-28T09:52:58.106Z,3.03
2022-08-28T09:55:37.795Z,2.25
2022-08-28T09:58:06.245Z,2.90
2022-08-28T10:00:39.238Z,2.50
2022-08-28T10:03:14.962Z,2.20
2022-08-28T10:05:48.078Z,2.50
2022-08-28T10:08:26.775Z,2.45
2022-08-28T10:10:57.074Z,2.50
2022-08-28T10:13:30.680Z,2.38
2022-08-28T10:16:09.922Z,2.20
2022-08-28T10:18:41.751Z,2.78
2022-08-28T10:21:15.165Z,2.55
2022-08-28T10:24:15.447Z,2.58
2022-08-28T10:26:58.280Z,2.25
2022-08-28T10:29:34.794Z,2.75
2022-08-28T10:32:18.778Z,3.38
2022-08-28T10:34:58.117Z,2.47
2022-08-28T10:37:34.594Z,2.33
2022-08-28T10:40:07.536Z,1.95
2022-08-28T10:42:37.731Z,2.30
2022-08-28T10:45:10.033Z,2.65
2022-08-28T10:47:43.024Z,2.08
2022-08-28T10:50:16.559Z,2.08
2022-08-28T10:52:48.703Z,2.13
2022-08-28T10:55:20.386Z,2.42
2022-08-28T10:57:50.525Z,1.90
2022-08-28T11:00:20.469Z,2.40
2022-08-28T11:02:51.786Z,2.42
2022-08-28T11:05:22.138Z,2.25
2022-08-28T11:07:52.539Z,2.63
2022-08-28T11:10:40.601Z,2.33
2022-08-28T11:13:10.480Z,2.45
2022-08-28T11:15:57.594Z,1.77
2022-08-28T11:18:56.794Z,2.30
2022-08-28T11:21:27.456Z,2.30
2022-08-28T11:24:01.349Z,2.03
2022-08-28T11:26:46.584Z,1.88
2022-08-28T11:30:19.091Z,2.90
2022-08-28T11:33:12.974Z,1.98
2022-08-28T11:35:45.938Z,2.28
2022-08-28T11:38:52.527Z,2.00
2022-08-28T11:41:26.351Z,2.45
2022-08-28T11:44:28.279Z,2.20
2022-08-28T11:46:58.864Z,1.98
2022-08-28T11:49:47.159Z,2.17
2022-08-28T11:52:36.355Z,1.75
2022-08-28T11:55:14.981Z,3.22
2022-08-28T11:57:53.868Z,2.15
2022-08-28T12:00:24.169Z,2.30
2022-08-28T12:03:02.893Z,1.95
2022-08-28T12:05:44.285Z,1.63
2022-08-28T12:08:14.609Z,2.38
2022-08-28T12:10:57.722Z,2.35
2022-08-28T12:14:00.687Z,2.38
2022-08-28T12:16:29.408Z,2.22
2022-08-28T12:19:04.556Z,2.47
2022-08-28T12:21:39.397Z,1.85
2022-08-28T12:24:17.526Z,2.08
2022-08-28T12:26:48.296Z,2.33
2022-08-28T12:29:29.114Z,2.25
2022-08-28T12:32:22.709Z,2.00
2022-08-28T12:35:04.729Z,2.05
2022-08-28T12:37:50.975Z,2.53
2022-08-28T12:40:22.922Z,2.20
2022-08-28T12:42:55.398Z,2.25
2022-08-28T12:45:29.198Z,2.10
2022-08-28T12:48:00.036Z,2.50
2022-08-28T12:50:34.903Z,1.85
2022-08-28T12:53:05.256Z,2.00
2022-08-28T12:55:33.988Z,2.13
2022-08-28T12:58:02.044Z,1.90
2022-08-28T13:00:35.691Z,2.20
2022-08-28T13:03:08.349Z,2.38
2022-08-28T13:05:39.690Z,1.85
2022-08-28T13:08:10.664Z,1.77
2022-08-28T13:10:40.465Z,1.98
2022-08-28T13:13:10.942Z,1.98
2022-08-28T13:15:53.436Z,2.00
2022-08-28T13:18:48.840Z,2.28
2022-08-28T13:21:33.183Z,2.03
2022-08-28T13:24:27.241Z,1.83
2022-08-28T13:27:04.184Z,1.95
2022-08-28T13:29:32.490Z,1.92
2022-08-28T13:32:04.122Z,2.42
2022-08-28T13:34:34.258Z,2.33
2022-08-28T13:37:04.226Z,1.50
2022-08-28T13:39:37.300Z,1.33
2022-08-28T13:42:08.018Z,2.22
2022-08-28T13:44:38.076Z,2.15
2022-08-28T13:47:08.102Z,1.80
2022-08-28T13:49:36.497Z,2.53
2022-08-28T13:52:06.684Z,1.75
2022-08-28T13:54:35.053Z,1.98
2022-08-28T13:57:03.815Z,1.55
2022-08-28T13:59:32.529Z,1.88
2022-08-28T14:02:19.731Z,1.92
2022-08-28T14:04:49.081Z,1.70
2022-08-28T14:07:17.644Z,2.00
2022-08-28T14:09:45.670Z,2.20
2022-08-28T14:12:15.162Z,2.30
2022-08-28T14:14:43.496Z,2.20
2022-08-28T14:17:11.649Z,1.90
2022-08-28T14:19:39.654Z,2.13
2022-08-28T14:22:08.982Z,2.10
2022-08-28T14:24:37.172Z,2.00
2022-08-28T14:27:05.456Z,2.08
2022-08-28T14:29:33.435Z,2.00
2022-08-28T14:32:01.829Z,1.52
2022-08-28T14:34:29.900Z,2.17
2022-08-28T14:36:57.911Z,2.33
2022-08-28T14:39:28.410Z,2.20
2022-08-28T14:41:56.415Z,1.85
2022-08-28T14:44:25.841Z,2.13
2022-08-28T14:46:54.642Z,1.95
2022-08-28T14:49:26.254Z,2.10
2022-08-28T14:51:55.069Z,1.85
2022-08-28T14:54:25.289Z,1.83
2022-08-28T14:56:55.749Z,1.77
2022-08-28T14:59:26.174Z,1.90
2022-08-28T15:01:55.254Z,2.67
2022-08-28T15:04:24.473Z,2.30
2022-08-28T15:06:57.160Z,1.88
2022-08-28T15:09:25.264Z,1.98
2022-08-28T15:11:54.792Z,2.17
2022-08-28T15:14:22.928Z,2.30
2022-08-28T15:16:51.052Z,2.20
2022-08-28T15:19:19.306Z,1.85
2022-08-28T15:21:49.590Z,1.95
2022-08-28T15:24:19.454Z,2.28
2022-08-28T15:26:47.537Z,2.40
2022-08-28T15:29:16.851Z,2.03
2022-08-28T15:31:46.524Z,1.98
2022-08-28T15:34:17.331Z,1.80
2022-08-28T15:36:54.611Z,2.00
2022-08-28T15:39:41.087Z,2.00
2022-08-28T15:42:09.919Z,2.50
2022-08-28T15:44:39.643Z,2.08
2022-08-28T15:47:08.043Z,1.90
2022-08-28T15:49:44.724Z,2.00
2022-08-28T15:52:19.322Z,2.60
2022-08-28T15:54:47.353Z,2.58
2022-08-28T15:57:15.386Z,2.28
2022-08-28T15:59:49.828Z,2.20
2022-08-28T16:02:19.791Z,2.00
2022-08-28T16:04:47.997Z,1.83
2022-08-28T16:07:16.069Z,1.75
2022-08-28T16:09:44.152Z,2.42
2022-08-28T16:12:12.053Z,2.03
2022-08-28T16:14:40.029Z,2.15
2022-08-28T16:17:11.110Z,1.92
2022-08-28T16:19:57.409Z,2.25
2022-08-28T16:22:25.347Z,2.22
2022-08-28T16:24:53.275Z,1.77
2022-08-28T16:27:21.629Z,2.00
2022-08-28T16:29:49.690Z,2.10
2022-08-28T16:32:22.944Z,2.05
2022-08-28T16:34:51.232Z,2.00
2022-08-28T16:37:20.855Z,2.10
2022-08-28T16:39:49.630Z,2.25
2022-08-28T16:42:17.875Z,1.70
2022-08-28T16:44:45.837Z,2.40
2022-08-28T16:47:13.753Z,2.05
2022-08-28T16:49:43.034Z,2.28
2022-08-28T16:52:10.933Z,1.92
2022-08-28T16:54:39.602Z,2.28
2022-08-28T16:57:16.968Z,2.25
2022-08-28T16:59:44.952Z,2.10
2022-08-28T17:02:13.465Z,2.47
2022-08-28T17:04:42.866Z,2.00
2022-08-28T17:07:11.641Z,2.33
2022-08-28T17:09:39.588Z,2.13
2022-08-28T17:12:07.890Z,2.25
2022-08-28T17:14:35.854Z,2.67
2022-08-28T17:17:04.522Z,2.20
2022-08-28T17:19:32.894Z,2.30
2022-08-28T17:22:19.638Z,2.22
2022-08-28T17:24:48.133Z,2.25
2022-08-28T17:27:22.475Z,2.35
2022-08-28T17:29:51.414Z,2.20
2022-08-28T17:32:19.814Z,2.10
2022-08-28T17:34:47.966Z,2.40
2022-08-28T17:37:17.795Z,2.38
2022-08-28T17:39:45.746Z,2.20
2022-08-28T17:42:13.691Z,2.15
2022-08-28T17:44:42.690Z,1.80
2022-08-28T17:47:11.942Z,2.00
2022-08-28T17:49:40.463Z,2.10
2022-08-28T17:52:08.366Z,2.35
2022-08-28T17:54:37.704Z,2.47
2022-08-28T17:57:06.312Z,1.90
2022-08-28T17:59:35.339Z,2.35
2022-08-28T18:02:03.515Z,2.63
2022-08-28T18:04:31.529Z,2.25
2022-08-28T18:06:59.621Z,2.85
2022-08-28T18:09:27.653Z,2.25
2022-08-28T18:11:57.106Z,2.22
2022-08-28T18:14:25.067Z,2.40
2022-08-28T18:16:53.179Z,2.75
2022-08-28T18:19:21.444Z,2.33
2022-08-28T18:21:49.361Z,2.38
2022-08-28T18:24:17.326Z,2.10
2022-08-28T18:26:45.433Z,2.10
2022-08-28T18:29:15.578Z,3.15
2022-08-28T18:31:43.993Z,3.40
2022-08-28T18:34:12.484Z,2.30
2022-08-28T18:36:41.621Z,2.20
2022-08-28T18:39:10.319Z,2.50
2022-08-28T18:41:44.451Z,2.60
2022-08-28T18:44:15.233Z,2.15
2022-08-28T18:46:43.893Z,2.75
2022-08-28T18:49:11.897Z,2.55
2022-08-28T18:51:40.833Z,2.83
2022-08-28T18:54:08.822Z,2.83
2022-08-28T18:56:38.387Z,3.00
2022-08-28T18:59:06.452Z,2.75
2022-08-28T19:01:36.153Z,2.60
2022-08-28T19:04:04.509Z,2.40
2022-08-28T19:06:32.870Z,2.33
2022-08-28T19:09:01.169Z,2.60
2022-08-28T19:11:31.367Z,3.97
2022-08-28T19:13:59.569Z,2.75
2022-08-28T19:16:32.687Z,2.60
2022-08-28T19:19:02.201Z,3.03
2022-08-28T19:21:30.170Z,2.83
2022-08-28T19:23:58.150Z,2.20
2022-08-28T19:26:26.584Z,3.22
2022-08-28T19:28:54.670Z,2.97
2022-08-28T19:31:23.157Z,2.90
2022-08-28T19:33:51.196Z,2.95
2022-08-28T19:36:21.311Z,2.97
2022-08-28T19:38:49.451Z,2.80
2022-08-28T19:41:17.598Z,3.05
2022-08-28T19:43:45.595Z,2.72
2022-08-28T19:46:18.355Z,2.60
2022-08-28T19:48:48.639Z,2.70
2022-08-28T19:51:18.275Z,2.42
2022-08-28T19:53:57.839Z,2.10
2022-08-28T19:56:27.942Z,2.45
2022-08-28T19:58:56.530Z,2.35
2022-08-28T20:01:24.508Z,2.85
2022-08-28T20:03:52.505Z,2.63
2022-08-28T20:06:20.491Z,2.78
2022-08-28T20:08:48.388Z,2.15
2022-08-28T20:11:24.588Z,2.05
2022-08-28T20:13:53.148Z,2.60
2022-08-28T20:16:21.401Z,2.50
2022-08-28T20:18:50.366Z,2.50
2022-08-28T20:21:32.977Z,2.42
2022-08-28T20:24:05.847Z,2.45
2022-08-28T20:26:35.370Z,2.47
2022-08-28T20:29:03.437Z,2.13
2022-08-28T20:31:31.323Z,2.40
2022-08-28T20:33:59.397Z,3.10
2022-08-28T20:36:27.414Z,2.40
2022-08-28T20:38:55.490Z,2.40
2022-08-28T20:41:24.162Z,2.20
2022-08-28T20:43:53.857Z,2.40
2022-08-28T20:46:22.214Z,1.90
2022-08-28T20:48:50.489Z,2.30
2022-08-28T20:51:38.600Z,2.40
2022-08-28T20:54:06.761Z,2.10
2022-08-28T20:56:34.679Z,2.53
2022-08-28T20:59:04.415Z,2.60
2022-08-28T21:01:33.694Z,2.05
2022-08-28T21:04:02.287Z,2.00
2022-08-28T21:06:31.054Z,2.83
2022-08-28T21:08:59.325Z,2.53
2022-08-28T21:11:27.720Z,2.22
2022-08-28T21:13:55.804Z,2.03
2022-08-28T21:16:25.171Z,2.42
2022-08-28T21:19:14.579Z,2.88
2022-08-28T21:21:41.888Z,2.13
2022-08-28T21:24:11.955Z,2.28
2022-08-28T21:26:42.590Z,2.40
2022-08-28T21:29:11.249Z,2.35
2022-08-28T21:31:42.783Z,2.53
2022-08-28T21:34:10.973Z,2.22
2022-08-28T21:36:45.811Z,2.65
2022-08-28T21:39:16.171Z,2.22
2022-08-28T21:41:44.147Z,2.60
2022-08-28T21:44:12.291Z,2.78
2022-08-28T21:46:41.958Z,2.83
2022-08-28T21:49:09.966Z,2.55
2022-08-28T21:51:38.029Z,2.50
2022-08-28T21:54:05.980Z,2.47
2022-08-28T21:56:33.948Z,2.15
2022-08-28T21:59:02.935Z,2.22
2022-08-28T22:01:30.995Z,2.60
2022-08-28T22:04:00.374Z,2.47
2022-08-28T22:06:28.462Z,2.60
2022-08-28T22:08:57.201Z,2.50
2022-08-28T22:11:26.767Z,2.75
2022-08-28T22:13:55.768Z,3.05
2022-08-28T22:16:24.408Z,2.05
2022-08-28T22:18:52.482Z,2.67
2022-08-28T22:21:42.684Z,2.70
2022-08-28T22:24:11.689Z,2.55
2022-08-28T22:26:40.276Z,2.80
2022-08-28T22:29:08.735Z,2.97
2022-08-28T22:31:39.680Z,2.75
2022-08-28T22:34:14.522Z,2.63
2022-08-28T22:36:43.828Z,2.67
2022-08-28T22:39:11.826Z,2.63
2022-08-28T22:41:40.328Z,2.47
2022-08-28T22:44:08.271Z,3.35
2022-08-28T22:46:36.221Z,2.85
2022-08-28T22:49:04.600Z,3.00
2022-08-28T22:51:35.015Z,2.67
2022-08-28T22:54:04.719Z,2.47
2022-08-28T22:56:32.721Z,3.58
2022-08-28T22:59:00.665Z,3.22
2022-08-28T23:01:28.787Z,2.80
2022-08-28T23:03:57.693Z,3.20
2022-08-28T23:06:25.704Z,3.38
2022-08-28T23:08:53.774Z,3.85
2022-08-28T23:11:23.193Z,3.58
2022-08-28T23:13:51.181Z,3.70
2022-08-28T23:16:23.791Z,3.55
2022-08-28T23:21:40.849Z,3.28
2022-08-28T23:24:12.803Z,3.90
2022-08-28T23:26:42.163Z,3.58
2022-08-28T23:29:10.630Z,3.70
2022-08-28T23:31:38.802Z,3.50
2022-08-28T23:34:07.493Z,3.63
2022-08-28T23:36:37.178Z,4.18
2022-08-28T23:39:07.963Z,3.47
2022-08-28T23:41:35.846Z,3.33
2022-08-28T23:44:08.516Z,3.70
2022-08-28T23:46:37.138Z,4.15
2022-08-28T23:49:09.862Z,3.58
2022-08-28T23:51:38.055Z,3.78
2022-08-28T23:54:06.786Z,4.15
2022-08-28T23:56:35.351Z,3.95
2022-08-28T23:59:04.912Z,3.80
